A 511 Airport
RKSG : now visible

Airfield :











YOU CAN JOIN US ON...

 
LOGIN :

Register | Disclaimer

   EN    FR    IT 

 









Legend :    VFR   Marginal VFR   IFR   Intensive IFR   Very Intensive IFR
Visi :
Ceiling :
>= 8 km
>= 3000ft
5 to 8 km
1000 to 3000 ft
1500m to 5 km
500 to 1000 ft
800 to 1500m
200 to 500 ft
< 800m
< 200 ft
Symbols :   Thunderstorms  Fog  Heavy snow  Heavy precipitations  Wind > 20 kt






- Airport Elevation : 51 ft


RKSG - A 511

CURRENT METAR :
  • 020956Z 29005KT 6SM HZ FEW110 SCT130 11/M10 A3018 RMK AO2A SLP224 T01081097 $

EXPIRED METARs :
  • 020856Z 30008KT 6SM HZ FEW200 12/M06 A3017 RMK AO2A SLP220 T01171059 53002 $
  • 020756Z 30011KT 6SM HZ FEW200 14/M06 A3016 RMK AO2A SLP217 T01361060 $

TAF TAF RKSG
Valid from the 02 at 03:00 until the 03 at 09:00 UTC


020300Z 0203/0309 27010G20KT 8000 HZ SCT180 QNH3020INS
BECMG 0206/0207 29010G15KT 9000 HZ FEW120 BKN150 QNH3019INS
BECMG 0211/0212 25009KT 8000 HZ BKN090 QNH3022INS
BECMG 0214/0215 23006KT 8000 HZ FEW080 QNH3023INS
BECMG 0218/0219 VRB04KT 4800 BR SKC QNH3024INS
BECMG 0223/0224 VRB06KT 6000 HZ SKC QNH3025INS
BECMG 0302/0303 28010G15KT 8000 HZ SKC QNH3017INS TX15/0204Z TN02/0220Z



MET'MAP, your aeronautical weather chart ! - Copyright ORBIFLY December 2007 - Disclaimer

ORBIFLY MET'MAP TEAM :

Programming & Development : Alexandra Zaïnal
Concept & original design : Baudouin d'Aumeries
Assistance for programming : Marc-Olivier Méhu
Technical & hardware support : Manuel Goepfert

Contact : metmap@orbifly.com




SOURCES & CREDITS :

   NOAA       Earth
Advisory